Time;durP1;ratioP1;P1;durP2;ratioP2;P2;SDS_P1;SDS_P2;PMS_P1;PMS_P2;Temp;Humidity;BMP_temperature;BMP_pressure;BME280_temperature;BME280_humidity;BME280_pressure;Samples;Min_cycle;Max_cycle;Signal;HPM_P1;HPM_P2
2024/01/25 00:00:06;;;;;;;58.92;10.35;;;9.60;54.70;;;;;;5090765;28;20435;-74
2024/01/25 00:02:31;;;;;;;57.93;11.07;;;9.60;55.00;;;;;;5090984;28;20942;-73
2024/01/25 00:04:57;;;;;;;58.83;10.40;;;9.50;55.00;;;;;;5091151;28;20389;-73
2024/01/25 00:07:22;;;;;;;58.13;10.40;;;9.60;55.00;;;;;;5090959;28;20382;-73
2024/01/25 00:09:48;;;;;;;49.70;9.57;;;9.60;54.90;;;;;;5090718;28;20738;-73
2024/01/25 00:12:14;;;;;;;53.40;9.93;;;9.60;55.00;;;;;;5091201;28;20467;-73
2024/01/25 00:14:39;;;;;;;56.95;9.88;;;9.60;55.20;;;;;;5090811;28;20430;-74
2024/01/25 00:17:05;;;;;;;61.23;10.93;;;9.50;55.50;;;;;;5092129;28;20436;-74
2024/01/25 00:19:31;;;;;;;53.50;10.10;;;9.50;55.50;;;;;;5074982;28;20492;-72
2024/01/25 00:21:56;;;;;;;59.30;9.33;;;9.50;56.00;;;;;;5092067;28;20916;-74
2024/01/25 00:24:22;;;;;;;68.87;11.50;;;9.40;56.40;;;;;;5090443;28;20845;-74
2024/01/25 00:26:48;;;;;;;60.40;11.50;;;9.40;56.70;;;;;;5090407;28;20419;-74
2024/01/25 00:29:15;;;;;;;59.65;10.10;;;9.40;56.50;;;;;;5090632;28;20878;-73
2024/01/25 00:31:40;;;;;;;51.42;10.15;;;9.50;56.70;;;;;;5090318;28;20872;-73
2024/01/25 00:34:06;;;;;;;57.13;9.90;;;9.40;57.00;;;;;;5090926;28;20420;-73
2024/01/25 00:36:32;;;;;;;55.97;9.50;;;9.40;56.90;;;;;;5090241;28;20401;-73
2024/01/25 00:38:58;;;;;;;69.18;10.88;;;9.40;56.80;;;;;;5090560;28;20413;-75
2024/01/25 00:41:24;;;;;;;60.53;10.77;;;9.40;57.00;;;;;;5090390;28;20382;-72
2024/01/25 00:43:49;;;;;;;57.93;10.90;;;9.40;57.00;;;;;;5090485;28;20374;-74
2024/01/25 00:46:15;;;;;;;64.70;10.65;;;9.30;57.50;;;;;;5090579;28;20430;-74
2024/01/25 00:48:42;;;;;;;61.03;10.00;;;9.30;57.60;;;;;;5090440;28;20473;-74
2024/01/25 00:51:14;;;;;;;52.67;9.75;;;9.30;58.20;;;;;;5090507;28;20381;-74
2024/01/25 00:53:39;;;;;;;59.78;10.73;;;9.20;58.40;;;;;;5090364;28;20415;-73
2024/01/25 00:56:05;;;;;;;57.72;9.60;;;9.20;58.20;;;;;;5090390;28;20413;-74
2024/01/25 00:58:31;;;;;;;59.20;10.60;;;9.20;58.70;;;;;;5090098;28;20911;-73
2024/01/25 01:00:57;;;;;;;61.27;10.93;;;9.10;59.40;;;;;;5091003;28;20409;-74
2024/01/25 01:03:23;;;;;;;55.90;10.60;;;9.10;60.10;;;;;;5094409;28;20748;-73
2024/01/25 01:05:49;;;;;;;56.78;10.40;;;9.00;60.10;;;;;;5094570;28;20439;-73
2024/01/25 01:08:14;;;;;;;50.50;10.25;;;8.90;61.00;;;;;;5094348;28;20381;-75
2024/01/25 01:10:40;;;;;;;53.83;10.40;;;8.90;61.00;;;;;;5093803;28;20740;-74
2024/01/25 01:13:06;;;;;;;59.93;10.13;;;8.90;61.50;;;;;;5094388;28;20398;-74
2024/01/25 01:15:31;;;;;;;48.28;9.50;;;8.90;61.40;;;;;;5094182;28;20386;-74
2024/01/25 01:17:57;;;;;;;52.65;9.90;;;8.90;61.60;;;;;;5093568;28;20402;-74
2024/01/25 01:20:23;;;;;;;57.00;10.43;;;8.80;61.90;;;;;;5094003;28;20451;-73
2024/01/25 01:22:48;;;;;;;62.72;10.80;;;8.80;62.20;;;;;;5094504;28;20381;-74
2024/01/25 01:25:14;;;;;;;69.07;11.20;;;8.80;62.40;;;;;;5094577;28;20791;-73
2024/01/25 01:27:39;;;;;;;57.63;10.30;;;8.70;63.60;;;;;;5094000;28;20789;-74
2024/01/25 01:30:08;;;;;;;62.17;10.93;;;8.70;63.60;;;;;;5093523;28;20378;-74
2024/01/25 01:32:33;;;;;;;70.05;11.02;;;8.70;64.00;;;;;;5093558;28;20412;-73
2024/01/25 01:34:59;;;;;;;51.42;9.75;;;8.70;64.00;;;;;;5093573;28;20418;-74
2024/01/25 01:37:24;;;;;;;43.50;9.50;;;8.70;64.40;;;;;;5093527;28;20390;-74
2024/01/25 01:39:50;;;;;;;63.23;11.93;;;8.60;65.30;;;;;;5093308;28;20776;-74
2024/01/25 01:42:16;;;;;;;70.97;11.35;;;8.60;65.40;;;;;;5093243;28;20413;-74
2024/01/25 01:44:42;;;;;;;62.50;11.02;;;8.50;66.00;;;;;;5093253;28;20436;-73
2024/01/25 01:47:07;;;;;;;70.20;11.05;;;8.50;66.50;;;;;;5093100;28;20404;-73
2024/01/25 01:49:33;;;;;;;54.13;10.73;;;8.50;66.60;;;;;;5093448;28;20424;-74
2024/01/25 01:51:59;;;;;;;56.40;10.45;;;8.50;66.70;;;;;;5093162;28;20410;-73
2024/01/25 01:54:25;;;;;;;63.00;11.07;;;8.50;66.80;;;;;;5092984;28;20393;-74
2024/01/25 01:56:51;;;;;;;56.10;10.88;;;8.50;67.10;;;;;;5093095;28;20466;-74
2024/01/25 01:59:17;;;;;;;64.80;10.55;;;8.40;67.50;;;;;;5093131;28;20497;-73
2024/01/25 02:01:43;;;;;;;55.10;10.90;;;8.40;67.80;;;;;;5092943;28;20394;-73
2024/01/25 02:04:08;;;;;;;56.43;10.40;;;8.40;67.90;;;;;;5093130;28;20386;-74
2024/01/25 02:06:34;;;;;;;66.87;10.13;;;8.40;68.70;;;;;;5093059;28;20746;-75
2024/01/25 02:09:00;;;;;;;64.60;11.03;;;8.40;68.30;;;;;;5075352;28;20483;-73
2024/01/25 02:11:26;;;;;;;50.90;10.40;;;8.40;68.70;;;;;;5093060;28;20382;-74
2024/01/25 02:13:52;;;;;;;59.42;10.98;;;8.30;69.40;;;;;;5092273;28;20910;-73
2024/01/25 02:16:19;;;;;;;62.00;10.60;;;8.20;70.60;;;;;;5092649;28;20381;-73
2024/01/25 02:18:45;;;;;;;68.22;11.32;;;8.20;71.50;;;;;;5092458;28;20390;-73
2024/01/25 02:21:11;;;;;;;51.00;10.45;;;8.30;70.20;;;;;;5092443;28;20405;-74
2024/01/25 02:23:36;;;;;;;64.63;10.00;;;8.40;69.70;;;;;;5092240;28;20401;-74
2024/01/25 02:26:02;;;;;;;62.00;11.07;;;8.40;69.40;;;;;;5092331;28;20382;-74
2024/01/25 02:28:27;;;;;;;52.93;10.30;;;8.40;69.40;;;;;;5092315;28;20378;-73
2024/01/25 02:30:53;;;;;;;54.93;11.00;;;8.40;69.60;;;;;;5113522;28;20370;-75
2024/01/25 02:33:19;;;;;;;73.03;10.73;;;8.30;70.40;;;;;;5115210;28;20386;-73
2024/01/25 02:35:44;;;;;;;71.80;11.90;;;8.30;70.50;;;;;;5115395;28;20382;-75
2024/01/25 02:38:10;;;;;;;57.77;11.33;;;8.30;70.30;;;;;;5115600;28;20402;-73
2024/01/25 02:40:35;;;;;;;53.80;10.07;;;8.30;71.00;;;;;;5116179;28;20425;-74
2024/01/25 02:43:01;;;;;;;54.47;10.87;;;8.40;70.90;;;;;;5116104;28;20396;-74
2024/01/25 02:45:26;;;;;;;56.90;10.90;;;8.50;69.50;;;;;;5116105;28;20400;-73
2024/01/25 02:47:52;;;;;;;64.00;10.63;;;8.50;68.70;;;;;;5096577;28;20385;-73
2024/01/25 02:50:18;;;;;;;70.82;10.32;;;8.60;68.30;;;;;;5097397;28;20374;-72
2024/01/25 02:52:43;;;;;;;60.90;10.43;;;8.60;67.00;;;;;;5109429;28;20378;-74
2024/01/25 02:55:09;;;;;;;63.33;10.73;;;8.70;66.70;;;;;;5098240;28;20810;-74
2024/01/25 02:57:34;;;;;;;59.88;10.85;;;8.70;66.40;;;;;;5096045;28;20382;-74
2024/01/25 03:00:00;;;;;;;58.70;11.27;;;8.60;66.80;;;;;;5093521;28;20741;-74
2024/01/25 03:02:26;;;;;;;63.05;11.77;;;8.60;67.00;;;;;;5093663;28;20430;-73
2024/01/25 03:04:51;;;;;;;52.90;10.13;;;8.60;67.30;;;;;;5093156;28;20378;-74
2024/01/25 03:07:17;;;;;;;55.17;10.82;;;8.60;68.00;;;;;;5092774;28;20378;-75
2024/01/25 03:09:43;;;;;;;65.63;10.83;;;8.50;68.20;;;;;;5073756;28;20950;-74
2024/01/25 03:12:08;;;;;;;56.20;9.80;;;8.50;68.20;;;;;;5091937;28;20470;-74
2024/01/25 03:14:34;;;;;;;58.50;10.80;;;8.50;68.50;;;;;;5091746;28;20400;-74
2024/01/25 03:16:59;;;;;;;53.77;9.83;;;8.30;69.60;;;;;;5091753;28;20386;-74
2024/01/25 03:19:26;;;;;;;52.90;10.23;;;8.30;70.50;;;;;;5091957;28;20493;-73
2024/01/25 03:21:52;;;;;;;60.10;10.27;;;8.20;70.70;;;;;;5091623;28;20373;-74
2024/01/25 03:24:18;;;;;;;55.30;10.25;;;8.10;71.30;;;;;;5091671;28;20722;-75
2024/01/25 03:26:43;;;;;;;59.35;9.88;;;8.00;72.50;;;;;;5075175;28;20824;-74
2024/01/25 03:29:09;;;;;;;64.30;11.15;;;8.00;73.50;;;;;;5095008;28;20531;-74
2024/01/25 03:31:35;;;;;;;60.00;9.65;;;8.00;73.10;;;;;;5097357;28;20915;-76
2024/01/25 03:34:01;;;;;;;61.90;11.07;;;8.00;73.50;;;;;;5097213;28;20381;-74
2024/01/25 03:36:27;;;;;;;63.20;12.10;;;7.90;74.20;;;;;;5097075;28;20401;-74
2024/01/25 03:38:53;;;;;;;58.95;10.55;;;8.00;73.60;;;;;;5096262;28;20401;-74
2024/01/25 03:41:18;;;;;;;50.05;10.60;;;8.00;73.40;;;;;;5092743;28;20377;-75
2024/01/25 03:43:44;;;;;;;71.53;10.70;;;8.00;73.50;;;;;;5093033;28;20459;-75
2024/01/25 03:46:13;;;;;;;60.90;10.13;;;7.90;73.80;;;;;;5092132;28;20447;-74
2024/01/25 03:48:39;;;;;;;59.38;11.63;;;7.90;73.70;;;;;;5091274;28;20384;-74
2024/01/25 03:51:05;;;;;;;70.40;11.20;;;7.90;73.70;;;;;;5090910;28;20374;-74
2024/01/25 03:53:30;;;;;;;52.53;9.83;;;7.90;73.70;;;;;;5091011;28;20489;-74
2024/01/25 03:55:56;;;;;;;63.90;10.50;;;7.90;74.00;;;;;;5091287;28;20378;-74
2024/01/25 03:58:21;;;;;;;56.00;10.87;;;7.80;74.50;;;;;;5091056;28;20406;-73
2024/01/25 04:00:47;;;;;;;60.50;11.10;;;7.80;74.60;;;;;;5090889;28;20925;-73
2024/01/25 04:03:13;;;;;;;58.73;10.00;;;7.80;74.70;;;;;;5090590;28;20407;-75
2024/01/25 04:05:41;;;;;;;64.67;10.47;;;7.70;75.00;;;;;;5091009;28;20436;-74
2024/01/25 04:08:07;;;;;;;58.97;9.60;;;7.80;75.00;;;;;;5090611;28;20381;-74
2024/01/25 04:10:33;;;;;;;59.33;10.35;;;7.70;75.40;;;;;;5090709;28;20434;-73
2024/01/25 04:13:04;;;;;;;65.10;10.55;;;7.60;75.90;;;;;;5090945;28;20482;-73
2024/01/25 04:15:30;;;;;;;65.53;10.35;;;7.60;77.20;;;;;;5091127;28;20394;-73
2024/01/25 04:17:56;;;;;;;63.80;10.95;;;7.50;78.10;;;;;;5091183;28;20406;-74
2024/01/25 04:20:22;;;;;;;69.38;10.88;;;7.50;78.50;;;;;;5091781;28;20383;-74
2024/01/25 04:22:47;;;;;;;60.10;9.83;;;7.50;78.50;;;;;;5100903;28;21000;-74
2024/01/25 04:25:13;;;;;;;58.17;11.60;;;7.50;78.40;;;;;;5107053;28;20378;-73
2024/01/25 04:27:39;;;;;;;51.43;10.23;;;7.40;78.90;;;;;;5095930;28;20394;-75
2024/01/25 04:30:08;;;;;;;76.13;11.77;;;7.40;79.70;;;;;;5091449;28;20868;-75
2024/01/25 04:32:34;;;;;;;62.15;12.25;;;7.40;80.00;;;;;;5091540;28;20469;-75
2024/01/25 04:35:00;;;;;;;64.37;11.10;;;7.40;80.80;;;;;;5091259;28;20465;-73
2024/01/25 04:37:25;;;;;;;62.80;11.43;;;7.30;81.60;;;;;;5093546;28;20855;-74
2024/01/25 04:39:51;;;;;;;65.43;11.40;;;7.30;82.30;;;;;;5094922;28;20394;-73
2024/01/25 04:42:17;;;;;;;63.25;11.32;;;7.10;83.10;;;;;;5094569;28;20374;-75
2024/01/25 04:44:42;;;;;;;77.38;11.93;;;7.10;84.00;;;;;;5094632;28;20555;-74
2024/01/25 04:47:09;;;;;;;77.10;12.65;;;7.10;85.00;;;;;;5096949;28;20377;-74
2024/01/25 04:49:35;;;;;;;61.60;10.85;;;7.10;85.80;;;;;;5098504;28;20432;-73
2024/01/25 04:52:01;;;;;;;74.60;11.50;;;7.10;85.30;;;;;;5094551;28;20378;-74
2024/01/25 04:54:27;;;;;;;59.70;10.23;;;7.20;85.10;;;;;;5094663;28;20461;-74
2024/01/25 04:56:52;;;;;;;59.25;12.00;;;7.20;85.20;;;;;;5094541;28;20378;-74
2024/01/25 04:59:18;;;;;;;59.42;11.68;;;7.10;85.40;;;;;;5094660;28;20397;-73
2024/01/25 05:01:43;;;;;;;64.40;11.52;;;7.00;86.00;;;;;;5094389;28;20956;-73
2024/01/25 05:04:09;;;;;;;71.43;11.88;;;7.00;86.80;;;;;;5094585;28;20381;-73
2024/01/25 05:06:35;;;;;;;77.38;12.68;;;6.90;87.70;;;;;;5094636;28;20864;-75
2024/01/25 05:09:00;;;;;;;81.70;13.15;;;6.90;88.00;;;;;;5094587;28;20374;-75
2024/01/25 05:11:26;;;;;;;72.07;11.23;;;6.90;88.40;;;;;;5094521;28;20393;-75
2024/01/25 05:13:52;;;;;;;73.33;12.27;;;6.90;88.30;;;;;;5094310;28;20378;-74
2024/01/25 05:16:17;;;;;;;58.00;12.10;;;6.90;89.10;;;;;;5076160;28;20426;-73
2024/01/25 05:18:43;;;;;;;71.03;12.37;;;6.80;89.40;;;;;;5094644;28;20398;-75
2024/01/25 05:21:08;;;;;;;63.70;10.33;;;6.80;89.50;;;;;;5094380;28;20434;-74
2024/01/25 05:23:34;;;;;;;78.97;12.93;;;6.70;90.20;;;;;;5094267;28;20887;-75
2024/01/25 05:26:02;;;;;;;71.37;12.07;;;6.60;90.80;;;;;;5094323;28;20431;-74
2024/01/25 05:28:27;;;;;;;75.57;12.93;;;6.70;90.50;;;;;;5094293;28;20907;-74
2024/01/25 05:30:53;;;;;;;68.80;11.73;;;6.60;90.90;;;;;;5094606;28;20382;-74
2024/01/25 05:33:18;;;;;;;68.80;10.97;;;6.60;90.70;;;;;;5094977;28;20382;-75
2024/01/25 05:35:44;;;;;;;52.90;11.27;;;6.60;91.00;;;;;;5095065;28;20799;-74
2024/01/25 05:38:09;;;;;;;60.77;10.97;;;6.60;90.70;;;;;;5093890;28;20402;-73
2024/01/25 05:40:35;;;;;;;51.90;10.87;;;6.70;90.90;;;;;;5094069;28;20736;-73
2024/01/25 05:43:01;;;;;;;59.23;11.47;;;6.50;91.30;;;;;;5075900;28;20818;-73
2024/01/25 05:45:26;;;;;;;78.73;12.50;;;6.50;92.20;;;;;;5094104;28;20455;-74
2024/01/25 05:47:52;;;;;;;68.23;12.07;;;6.50;92.20;;;;;;5075621;28;20396;-73
2024/01/25 05:50:18;;;;;;;68.00;12.00;;;6.60;91.70;;;;;;5096733;28;20386;-75
2024/01/25 05:52:44;;;;;;;64.55;11.85;;;6.60;92.30;;;;;;5097046;28;20742;-73
2024/01/25 05:55:09;;;;;;;68.43;11.90;;;6.60;91.80;;;;;;5079761;28;20402;-75
2024/01/25 05:57:36;;;;;;;65.57;12.03;;;6.60;91.60;;;;;;5098060;28;20386;-75
2024/01/25 06:00:05;;;;;;;71.18;11.77;;;6.50;91.60;;;;;;5097345;28;20861;-74
2024/01/25 06:02:31;;;;;;;70.88;12.68;;;6.50;91.30;;;;;;5095337;28;20883;-74
2024/01/25 06:04:58;;;;;;;70.07;11.95;;;6.50;91.20;;;;;;5094752;28;20390;-75
2024/01/25 06:07:25;;;;;;;77.78;13.55;;;6.40;91.70;;;;;;5096979;28;20389;-73
2024/01/25 06:09:50;;;;;;;74.80;12.57;;;6.50;91.30;;;;;;5097110;28;20450;-74
2024/01/25 06:12:16;;;;;;;64.43;12.77;;;6.30;92.00;;;;;;5095750;28;20389;-73
2024/01/25 06:14:42;;;;;;;74.68;12.18;;;6.40;92.10;;;;;;5095821;28;20710;-73
2024/01/25 06:17:07;;;;;;;62.83;11.45;;;6.40;92.00;;;;;;5076442;28;20455;-76
2024/01/25 06:19:34;;;;;;;60.90;11.60;;;6.40;91.70;;;;;;5096586;28;20398;-74
2024/01/25 06:22:00;;;;;;;69.72;12.20;;;6.30;92.00;;;;;;5094573;28;20451;-73
2024/01/25 06:24:25;;;;;;;69.10;11.80;;;6.20;92.40;;;;;;5092155;28;20401;-74
2024/01/25 06:26:53;;;;;;;67.63;12.38;;;6.20;93.80;;;;;;5083451;28;20418;-73
2024/01/25 06:29:19;;;;;;;67.83;11.57;;;6.10;93.70;;;;;;5092979;28;20910;-75
2024/01/25 06:31:45;;;;;;;72.70;11.77;;;6.00;93.70;;;;;;5091271;28;20382;-73
2024/01/25 06:34:11;;;;;;;51.88;11.45;;;6.00;94.90;;;;;;5072660;28;20379;-74
2024/01/25 06:36:37;;;;;;;59.60;11.40;;;6.00;94.40;;;;;;5076764;28;20453;-74
2024/01/25 06:39:06;;;;;;;65.67;12.80;;;6.00;93.60;;;;;;5080440;28;20892;-70
2024/01/25 06:41:32;;;;;;;80.95;12.60;;;6.00;93.60;;;;;;5074822;28;20393;-74
2024/01/25 06:43:58;;;;;;;63.45;11.52;;;6.10;93.00;;;;;;5090643;28;20458;-74
2024/01/25 06:46:24;;;;;;;68.00;12.00;;;6.00;93.30;;;;;;5092841;28;20446;-73
2024/01/25 06:48:50;;;;;;;62.85;11.27;;;5.90;93.80;;;;;;5092465;28;20465;-73
2024/01/25 06:51:16;;;;;;;64.95;11.95;;;5.90;93.90;;;;;;5092847;28;20876;-75
2024/01/25 06:53:41;;;;;;;69.20;11.80;;;5.90;93.60;;;;;;5090321;28;20602;-72
2024/01/25 06:56:07;;;;;;;74.63;11.80;;;5.90;94.00;;;;;;5092610;28;20426;-73
2024/01/25 06:58:32;;;;;;;68.07;12.27;;;5.90;94.30;;;;;;5092156;28;20406;-73
2024/01/25 07:00:58;;;;;;;79.63;13.00;;;5.80;94.50;;;;;;5084014;28;20409;-74
2024/01/25 07:03:24;;;;;;;59.30;11.47;;;5.80;94.70;;;;;;5084459;28;20520;-74
2024/01/25 07:05:50;;;;;;;53.90;11.30;;;5.70;95.70;;;;;;5080784;28;20423;-73
2024/01/25 07:08:15;;;;;;;67.45;12.45;;;5.80;95.30;;;;;;5093956;28;20442;-73
2024/01/25 07:10:42;;;;;;;55.92;11.68;;;5.80;95.10;;;;;;5085689;28;20392;-74
2024/01/25 07:13:07;;;;;;;62.28;12.75;;;5.80;94.00;;;;;;5078081;28;20456;-74
2024/01/25 07:15:33;;;;;;;60.75;12.25;;;5.80;94.70;;;;;;5080354;28;20825;-74
2024/01/25 07:17:59;;;;;;;74.18;12.52;;;5.80;95.40;;;;;;5077476;28;20399;-76
2024/01/25 07:20:24;;;;;;;60.58;11.73;;;5.80;96.10;;;;;;5075645;28;20722;-72
2024/01/25 07:22:50;;;;;;;68.82;12.82;;;5.80;95.80;;;;;;5091162;28;20928;-72
2024/01/25 07:25:15;;;;;;;66.47;12.57;;;5.80;96.10;;;;;;5092093;28;20486;-70
2024/01/25 07:27:45;;;;;;;71.82;11.70;;;5.80;96.20;;;;;;5090232;28;20464;-71
2024/01/25 07:30:12;;;;;;;71.53;13.48;;;5.80;96.20;;;;;;5055844;28;20422;-72
2024/01/25 07:32:38;;;;;;;75.72;14.02;;;5.90;96.50;;;;;;5080925;28;20579;-72
2024/01/25 07:35:04;;;;;;;75.47;13.70;;;5.90;96.60;;;;;;5054299;28;20378;-72
2024/01/25 07:37:30;;;;;;;72.80;13.67;;;6.00;96.80;;;;;;5071956;28;20403;-69
2024/01/25 07:39:56;;;;;;;79.75;14.73;;;6.00;96.50;;;;;;5078011;28;20413;-72
2024/01/25 07:42:21;;;;;;;75.53;14.80;;;6.00;96.00;;;;;;5071494;28;20747;-70
2024/01/25 07:44:47;;;;;;;75.55;14.23;;;6.00;96.60;;;;;;5078400;28;20477;-71
2024/01/25 07:47:14;;;;;;;75.23;13.27;;;6.10;96.80;;;;;;5074794;28;20912;-71
2024/01/25 07:49:40;;;;;;;80.55;13.93;;;6.00;97.70;;;;;;5077683;28;20447;-72
2024/01/25 07:52:06;;;;;;;67.72;14.77;;;6.20;97.00;;;;;;5071389;28;20473;-70
2024/01/25 07:54:32;;;;;;;76.23;13.57;;;6.20;96.40;;;;;;5072240;28;20400;-75
2024/01/25 07:56:58;;;;;;;71.70;13.50;;;6.20;97.00;;;;;;5091965;28;20814;-73
2024/01/25 07:59:23;;;;;;;81.90;13.65;;;6.30;96.80;;;;;;5094035;28;20465;-74
2024/01/25 08:01:49;;;;;;;69.15;14.57;;;6.40;95.60;;;;;;5092358;28;20413;-74
2024/01/25 08:04:14;;;;;;;64.90;13.75;;;6.30;95.70;;;;;;5092009;28;20381;-74
2024/01/25 08:06:40;;;;;;;77.25;13.55;;;6.40;95.70;;;;;;5093223;28;20462;-73
2024/01/25 08:09:05;;;;;;;74.28;14.50;;;6.40;95.00;;;;;;5092083;28;20401;-73
2024/01/25 08:11:31;;;;;;;68.32;13.93;;;6.60;95.10;;;;;;5093832;28;20503;-74
2024/01/25 08:13:57;;;;;;;77.03;13.57;;;6.60;94.40;;;;;;5099997;28;20389;-73
2024/01/25 08:16:22;;;;;;;75.57;13.05;;;6.70;93.60;;;;;;5094396;28;20397;-74
2024/01/25 08:18:48;;;;;;;65.87;13.70;;;6.70;93.30;;;;;;5092432;28;20402;-73
2024/01/25 08:21:15;;;;;;;73.33;13.63;;;6.80;93.70;;;;;;5090892;28;20462;-74
2024/01/25 08:23:40;;;;;;;83.65;16.90;;;6.90;91.60;;;;;;5091980;28;20378;-75
2024/01/25 08:26:09;;;;;;;73.53;13.97;;;7.00;90.20;;;;;;5094634;28;20383;-73
2024/01/25 08:28:43;;;;;;;73.47;13.98;;;6.90;90.70;;;;;;5090945;28;20386;-73
2024/01/25 08:31:08;;;;;;;55.05;12.20;;;7.00;91.50;;;;;;5090996;28;20389;-73
2024/01/25 08:33:34;;;;;;;76.40;13.50;;;7.00;90.10;;;;;;5090857;28;20572;-73
2024/01/25 08:36:00;;;;;;;69.65;14.18;;;7.00;91.00;;;;;;5091743;28;20394;-74
2024/01/25 08:38:25;;;;;;;77.15;13.30;;;7.00;91.70;;;;;;5091071;28;20765;-74
2024/01/25 08:40:51;;;;;;;78.22;14.65;;;7.10;91.30;;;;;;5091342;28;20393;-75
2024/01/25 08:43:17;;;;;;;71.03;15.32;;;7.20;90.50;;;;;;5090655;28;20381;-75
2024/01/25 08:45:43;;;;;;;76.22;15.57;;;7.30;87.20;;;;;;5090828;28;20378;-75
2024/01/25 08:48:09;;;;;;;60.53;14.10;;;7.50;86.40;;;;;;5090777;28;20381;-75
2024/01/25 08:50:36;;;;;;;63.75;14.50;;;7.50;85.70;;;;;;5091096;28;20411;-75
2024/01/25 08:53:02;;;;;;;72.28;14.27;;;7.60;83.70;;;;;;5090674;28;20488;-74
2024/01/25 08:55:27;;;;;;;74.97;15.27;;;7.60;84.30;;;;;;5090418;28;20390;-73
2024/01/25 08:57:53;;;;;;;70.35;14.43;;;7.80;83.50;;;;;;5090867;28;20443;-74
2024/01/25 09:00:19;;;;;;;57.13;13.40;;;7.80;82.30;;;;;;5090540;28;20443;-74
2024/01/25 09:02:44;;;;;;;74.18;15.20;;;7.80;82.10;;;;;;5091131;28;20446;-74
2024/01/25 09:05:10;;;;;;;75.30;15.88;;;7.90;82.60;;;;;;5090679;28;20444;-74
2024/01/25 09:07:36;;;;;;;70.90;15.15;;;7.90;82.40;;;;;;5090968;28;20383;-74
2024/01/25 09:10:04;;;;;;;62.00;14.38;;;8.00;82.50;;;;;;5091047;28;20431;-75
2024/01/25 09:12:30;;;;;;;68.23;15.67;;;8.10;81.20;;;;;;5090857;28;20397;-73
2024/01/25 09:14:55;;;;;;;74.38;14.30;;;8.20;80.90;;;;;;5090525;28;20450;-74
2024/01/25 09:17:24;;;;;;;65.20;13.57;;;8.30;78.60;;;;;;5072559;28;20485;-75
2024/01/25 09:19:50;;;;;;;58.22;14.38;;;8.20;78.40;;;;;;5090281;28;20413;-75
2024/01/25 09:22:19;;;;;;;71.77;16.00;;;8.20;77.80;;;;;;5090508;28;20456;-75
2024/01/25 09:24:46;;;;;;;61.95;13.75;;;8.20;79.30;;;;;;5075210;28;20398;-74
2024/01/25 09:27:12;;;;;;;67.40;14.63;;;8.20;78.80;;;;;;5095129;28;20412;-74
2024/01/25 09:29:38;;;;;;;61.33;15.43;;;8.30;78.00;;;;;;5094665;28;20396;-73
2024/01/25 09:32:08;;;;;;;73.38;13.57;;;8.30;78.00;;;;;;5081003;28;20477;-74
2024/01/25 09:34:38;;;;;;;80.82;15.05;;;8.40;76.60;;;;;;5096586;28;20381;-74
2024/01/25 09:37:04;;;;;;;60.42;13.95;;;8.40;76.20;;;;;;5093763;28;20428;-73
2024/01/25 09:39:31;;;;;;;71.20;15.32;;;8.40;76.60;;;;;;5093761;28;20410;-74
2024/01/25 09:41:56;;;;;;;58.03;14.68;;;8.40;77.90;;;;;;5093427;28;20446;-73
2024/01/25 09:44:22;;;;;;;80.30;16.10;;;8.50;77.10;;;;;;5093758;28;20472;-74
2024/01/25 09:46:48;;;;;;;74.00;16.02;;;8.40;78.10;;;;;;5097160;28;20468;-75
2024/01/25 09:49:13;;;;;;;59.85;16.23;;;8.50;75.70;;;;;;5095538;28;20382;-74
2024/01/25 09:51:41;;;;;;;75.40;16.23;;;8.50;76.40;;;;;;5077161;28;20386;-74
2024/01/25 09:54:07;;;;;;;64.88;16.35;;;8.60;75.60;;;;;;5095125;28;20381;-75
2024/01/25 09:56:33;;;;;;;65.68;14.63;;;8.60;75.10;;;;;;5075894;28;20386;-75
2024/01/25 09:59:00;;;;;;;68.93;16.52;;;8.70;73.60;;;;;;5094049;28;20405;-75
2024/01/25 10:01:26;;;;;;;67.88;15.27;;;8.70;73.00;;;;;;5094507;28;20382;-76
2024/01/25 10:03:51;;;;;;;62.30;15.35;;;8.80;71.80;;;;;;5093731;28;20381;-75
2024/01/25 10:06:17;;;;;;;57.80;15.95;;;8.90;71.40;;;;;;5075529;28;20386;-75
2024/01/25 10:08:43;;;;;;;64.25;15.88;;;8.90;71.80;;;;;;5093415;28;20439;-75
2024/01/25 10:11:11;;;;;;;70.07;16.10;;;8.90;71.10;;;;;;5097472;28;20389;-75
2024/01/25 10:13:41;;;;;;;70.28;16.77;;;9.00;71.80;;;;;;5107043;28;20382;-74
2024/01/25 10:16:10;;;;;;;59.43;16.60;;;9.20;70.00;;;;;;5093132;28;20378;-75
2024/01/25 10:18:36;;;;;;;65.15;15.20;;;9.20;69.20;;;;;;5093403;28;20764;-74
2024/01/25 10:21:02;;;;;;;65.30;15.60;;;9.30;68.80;;;;;;5092909;28;20458;-74
2024/01/25 10:23:28;;;;;;;76.03;15.95;;;9.50;66.60;;;;;;5092913;28;20385;-75
2024/01/25 10:25:56;;;;;;;65.55;15.63;;;9.60;63.40;;;;;;5093108;28;20378;-75
2024/01/25 10:28:24;;;;;;;61.60;15.97;;;9.60;64.80;;;;;;5093164;28;20386;-74
2024/01/25 10:30:50;;;;;;;65.70;14.77;;;9.80;64.90;;;;;;5093564;28;20459;-75
2024/01/25 10:33:17;;;;;;;62.80;14.60;;;9.70;63.80;;;;;;5097980;28;20389;-75
2024/01/25 10:35:49;;;;;;;57.20;14.52;;;9.80;63.10;;;;;;5097828;28;20374;-75
2024/01/25 10:38:17;;;;;;;66.78;16.55;;;9.70;61.70;;;;;;5095586;28;20883;-74
2024/01/25 10:40:43;;;;;;;78.10;16.42;;;9.70;60.70;;;;;;5093185;28;20436;-73
2024/01/25 10:43:09;;;;;;;67.18;16.58;;;9.70;61.20;;;;;;5093119;28;20427;-75
2024/01/25 10:45:34;;;;;;;67.18;15.43;;;9.70;61.20;;;;;;5093119;28;20834;-75
2024/01/25 10:48:00;;;;;;;71.25;17.60;;;9.80;60.90;;;;;;5092455;28;20382;-73
2024/01/25 10:50:26;;;;;;;59.63;16.17;;;9.80;60.00;;;;;;5092834;28;20393;-75
2024/01/25 10:52:52;;;;;;;58.80;15.82;;;9.80;60.50;;;;;;5092030;28;20741;-74
2024/01/25 10:55:18;;;;;;;53.05;15.80;;;9.70;61.00;;;;;;5092133;28;20398;-74
2024/01/25 10:57:45;;;;;;;65.63;15.98;;;9.80;62.00;;;;;;5092019;28;20741;-72
2024/01/25 11:00:14;;;;;;;70.05;17.23;;;9.70;60.70;;;;;;5092116;28;20381;-75
2024/01/25 11:02:40;;;;;;;65.28;16.40;;;9.70;61.10;;;;;;5092133;28;20369;-75
2024/01/25 11:05:10;;;;;;;58.15;16.33;;;9.80;59.20;;;;;;5092196;28;20392;-73
2024/01/25 11:07:45;;;;;;;60.78;15.35;;;9.80;59.20;;;;;;5092793;28;20476;-72
2024/01/25 11:10:16;;;;;;;58.10;15.30;;;9.80;60.00;;;;;;5097199;28;20401;-75
2024/01/25 11:13:03;;;;;;;70.75;16.60;;;9.80;59.20;;;;;;5083116;28;20466;-74
2024/01/25 11:15:36;;;;;;;62.75;16.83;;;9.80;60.20;;;;;;5096919;28;20496;-74
2024/01/25 11:18:06;;;;;;;61.05;17.17;;;9.70;61.30;;;;;;5092841;28;20386;-73
2024/01/25 11:20:33;;;;;;;59.72;17.00;;;10.10;59.90;;;;;;5092739;28;20381;-76
2024/01/25 11:23:01;;;;;;;70.50;16.20;;;10.10;59.30;;;;;;5091807;28;20827;-74
2024/01/25 11:25:28;;;;;;;57.53;16.08;;;10.20;57.80;;;;;;5095170;28;20405;-76
2024/01/25 11:27:54;;;;;;;70.65;17.10;;;10.20;57.70;;;;;;5091614;28;20378;-74
2024/01/25 11:30:20;;;;;;;58.67;15.60;;;10.30;57.60;;;;;;5077654;28;20888;-74
2024/01/25 11:32:49;;;;;;;61.05;14.95;;;10.30;55.90;;;;;;5098820;28;20378;-75
2024/01/25 11:35:18;;;;;;;61.88;16.25;;;10.20;56.30;;;;;;5096977;28;20378;-74
2024/01/25 11:37:48;;;;;;;75.45;15.68;;;10.30;56.30;;;;;;5078471;28;20390;-75
2024/01/25 11:40:14;;;;;;;66.38;17.80;;;10.40;56.30;;;;;;5091536;28;20390;-74
2024/01/25 11:42:42;;;;;;;67.45;16.02;;;10.40;55.40;;;;;;5072842;28;20433;-74
2024/01/25 11:45:12;;;;;;;61.80;16.40;;;10.40;54.40;;;;;;5072855;28;20394;-74
2024/01/25 11:47:38;;;;;;;68.10;17.10;;;10.50;53.50;;;;;;5090684;28;20461;-75
2024/01/25 11:50:06;;;;;;;80.20;18.50;;;10.50;53.20;;;;;;5090683;28;20468;-74
2024/01/25 11:52:33;;;;;;;65.60;16.98;;;10.50;52.50;;;;;;5091064;28;20414;-75
2024/01/25 11:55:17;;;;;;;65.70;17.88;;;10.40;52.70;;;;;;5094028;28;20393;-74
2024/01/25 11:57:43;;;;;;;74.78;18.58;;;10.50;52.50;;;;;;5091393;28;20386;-74
2024/01/25 12:00:12;;;;;;;67.15;18.70;;;10.60;52.40;;;;;;5091617;28;20389;-74
2024/01/25 12:02:38;;;;;;;70.30;19.00;;;10.80;51.90;;;;;;5091966;28;20386;-73
2024/01/25 12:05:05;;;;;;;64.15;19.92;;;10.90;51.30;;;;;;5090935;28;20382;-74
2024/01/25 12:07:31;;;;;;;79.38;21.67;;;11.00;49.90;;;;;;5090904;28;20700;-74
2024/01/25 12:10:05;;;;;;;79.95;21.17;;;10.90;49.40;;;;;;5072643;28;20475;-74
2024/01/25 12:12:31;;;;;;;74.03;22.70;;;10.90;50.10;;;;;;5090937;28;20668;-74
2024/01/25 12:15:00;;;;;;;74.17;22.60;;;10.80;49.50;;;;;;5091387;28;20390;-74
2024/01/25 12:17:32;;;;;;;64.53;22.65;;;10.70;49.90;;;;;;5090702;28;20382;-74
2024/01/25 12:19:59;;;;;;;73.53;23.52;;;10.60;50.10;;;;;;5090436;28;20394;-75
2024/01/25 12:22:27;;;;;;;66.80;21.23;;;10.50;51.10;;;;;;5090671;28;20880;-75
2024/01/25 12:24:54;;;;;;;73.40;23.80;;;10.40;51.60;;;;;;5090570;28;20387;-74
2024/01/25 12:27:24;;;;;;;68.38;23.17;;;10.40;52.20;;;;;;5090559;28;20392;-73
2024/01/25 12:29:53;;;;;;;77.75;23.58;;;10.50;51.80;;;;;;5090737;28;20809;-74